Time;durP1;ratioP1;P1;durP2;ratioP2;P2;SDS_P1;SDS_P2;PMS_P1;PMS_P2;Temp;Humidity;BMP_temperature;BMP_pressure;BME280_temperature;BME280_humidity;BME280_pressure;Samples;Min_cycle;Max_cycle;Signal;HPM_P1;HPM_P2
2023/12/16 00:02:21;;;;;;;17.95;4.05;;;;;;;8.61;82.54;103699.13;7392373;19;20043;-61
2023/12/16 00:04:49;;;;;;;17.02;4.07;;;;;;;8.62;82.33;103694.72;7394122;19;20022;-62
2023/12/16 00:07:17;;;;;;;17.88;4.22;;;;;;;8.59;82.43;103698.28;7393254;19;20014;-62
2023/12/16 00:09:45;;;;;;;14.63;4.07;;;;;;;8.56;82.45;103708.03;7391804;19;20030;-62
2023/12/16 00:12:13;;;;;;;17.60;4.18;;;;;;;8.59;82.47;103703.59;7393614;19;20019;-62
2023/12/16 00:14:41;;;;;;;18.60;4.80;;;;;;;8.60;82.22;103696.53;7394202;19;20026;-61
2023/12/16 00:17:09;;;;;;;17.88;4.38;;;;;;;8.63;82.13;103696.47;7393856;19;20018;-61
2023/12/16 00:19:37;;;;;;;19.85;4.57;;;;;;;8.68;81.94;103698.13;7393394;19;20022;-62
2023/12/16 00:22:06;;;;;;;18.73;4.43;;;;;;;8.70;81.91;103703.38;7392707;19;20015;-62
2023/12/16 00:24:34;;;;;;;19.48;4.65;;;;;;;8.70;81.71;103706.00;7393760;19;20365;-62
2023/12/16 00:27:02;;;;;;;23.63;4.93;;;;;;;8.71;81.49;103715.69;7393282;19;20506;-62
2023/12/16 00:29:30;;;;;;;18.20;4.13;;;;;;;8.67;81.24;103701.66;7392872;19;20018;-62
2023/12/16 00:31:58;;;;;;;17.60;4.28;;;;;;;8.71;81.33;103721.84;7392301;19;20498;-62
2023/12/16 00:34:26;;;;;;;15.95;4.30;;;;;;;8.73;80.91;103727.09;7393439;19;20019;-62
2023/12/16 00:36:54;;;;;;;17.25;4.43;;;;;;;8.80;80.79;103723.44;7393598;19;20039;-60
2023/12/16 00:39:22;;;;;;;16.48;4.30;;;;;;;8.78;80.54;103728.78;7392232;19;20051;-61
2023/12/16 00:41:50;;;;;;;14.82;4.07;;;;;;;8.77;80.45;103727.00;7391383;19;20019;-62
2023/12/16 00:44:17;;;;;;;18.25;4.20;;;;;;;8.76;80.10;103722.63;7393928;19;20352;-60
2023/12/16 00:46:45;;;;;;;14.20;3.45;;;;;;;8.72;80.54;103715.66;7393086;19;20044;-62
2023/12/16 00:49:13;;;;;;;18.17;3.67;;;;;;;8.73;80.25;103703.31;7393053;19;20025;-61
2023/12/16 00:51:41;;;;;;;15.02;3.88;;;;;;;8.79;79.79;103703.22;7390093;19;20120;-62
2023/12/16 00:54:09;;;;;;;17.33;3.50;;;;;;;8.70;80.08;103693.69;7391305;19;20026;-62
2023/12/16 00:56:37;;;;;;;15.48;4.03;;;;;;;8.75;80.08;103685.69;7392690;19;20018;-62
2023/12/16 00:59:05;;;;;;;20.10;4.15;;;;;;;8.71;79.82;103684.00;7395575;19;20043;-61
2023/12/16 01:01:33;;;;;;;18.67;3.92;;;;;;;8.61;79.95;103669.19;7388555;19;20022;-61
2023/12/16 01:04:01;;;;;;;14.35;3.35;;;;;;;8.73;79.73;103685.69;7392496;19;20026;-62
2023/12/16 01:06:29;;;;;;;11.10;3.38;;;;;;;8.82;79.28;103689.09;7392616;19;20086;-63
2023/12/16 01:08:57;;;;;;;14.40;3.80;;;;;;;8.75;79.04;103689.19;7392010;19;20018;-62
2023/12/16 01:11:25;;;;;;;18.70;3.60;;;;;;;8.77;79.08;103691.78;7390201;19;20022;-62
2023/12/16 01:13:53;;;;;;;13.75;3.20;;;;;;;8.79;79.27;103692.63;7392353;19;20042;-62
2023/12/16 01:16:21;;;;;;;13.60;3.67;;;;;;;8.85;78.86;103702.22;7391568;19;20035;-62
2023/12/16 01:18:49;;;;;;;14.30;3.85;;;;;;;8.89;78.60;103690.69;7391867;19;20030;-62
2023/12/16 01:21:18;;;;;;;15.73;3.67;;;;;;;8.87;78.46;103682.78;7389597;19;20393;-62
2023/12/16 01:23:46;;;;;;;13.15;3.33;;;;;;;8.88;78.38;103686.31;7391989;19;20089;-62
2023/12/16 01:26:13;;;;;;;13.88;3.40;;;;;;;8.93;78.14;103687.06;7391257;19;20494;-62
2023/12/16 01:28:41;;;;;;;15.40;3.50;;;;;;;8.97;78.00;103692.28;7391547;19;20119;-62
2023/12/16 01:31:09;;;;;;;13.73;3.08;;;;;;;8.86;78.16;103673.13;7389869;19;20019;-62
2023/12/16 01:33:37;;;;;;;16.95;3.10;;;;;;;8.86;77.99;103685.47;7391796;19;20022;-62
2023/12/16 01:36:05;;;;;;;14.52;3.38;;;;;;;8.83;77.65;103691.69;7391495;19;20010;-62
2023/12/16 01:38:33;;;;;;;14.40;3.38;;;;;;;8.83;77.78;103707.53;7391704;19;20018;-63
2023/12/16 01:41:01;;;;;;;10.88;2.72;;;;;;;8.88;77.66;103705.66;7389564;19;20011;-61
2023/12/16 01:43:29;;;;;;;21.98;4.05;;;;;;;8.95;76.99;103701.16;7391083;19;20046;-61
2023/12/16 01:46:03;;;;;;;13.52;3.30;;;;;;;8.97;77.10;103713.44;7391571;19;20524;-62
2023/12/16 01:48:33;;;;;;;15.00;3.17;;;;;;;8.94;77.32;103715.28;7389571;19;20383;-62
2023/12/16 01:51:02;;;;;;;14.55;2.85;;;;;;;8.85;76.80;103703.06;7392327;19;20021;-61
2023/12/16 01:53:31;;;;;;;12.68;3.08;;;;;;;8.95;77.01;103714.34;7399495;19;20025;-62
2023/12/16 01:55:59;;;;;;;12.93;3.15;;;;;;;8.93;76.55;103714.41;7398413;19;20064;-62
2023/12/16 01:58:28;;;;;;;12.02;3.17;;;;;;;8.90;76.79;103703.88;7398286;19;20015;-62
2023/12/16 02:00:56;;;;;;;10.57;2.85;;;;;;;8.92;76.38;103715.28;7396408;19;20623;-62
2023/12/16 02:03:27;;;;;;;14.13;3.08;;;;;;;8.90;76.62;103717.09;7398646;19;20026;-62
2023/12/16 02:05:56;;;;;;;14.98;2.90;;;;;;;8.96;76.23;103714.31;7398153;19;20019;-62
2023/12/16 02:08:24;;;;;;;12.90;2.90;;;;;;;8.96;75.86;103700.22;7397789;19;20018;-62
2023/12/16 02:10:52;;;;;;;11.70;2.58;;;;;;;9.01;75.75;103707.19;7395666;19;20368;-62
2023/12/16 02:13:23;;;;;;;12.40;2.60;;;;;;;8.99;75.78;103706.34;7398485;19;20503;-62
2023/12/16 02:15:51;;;;;;;11.90;2.97;;;;;;;8.92;75.61;103712.63;7397930;19;20482;-62
2023/12/16 02:18:19;;;;;;;11.02;2.78;;;;;;;8.91;75.62;103713.53;7396620;19;20028;-62
2023/12/16 02:20:47;;;;;;;11.10;2.70;;;;;;;8.88;75.51;103708.31;7395749;19;20022;-62
2023/12/16 02:23:17;;;;;;;12.60;2.88;;;;;;;8.92;75.58;103707.34;7398004;19;20011;-62
2023/12/16 02:25:45;;;;;;;13.85;2.72;;;;;;;8.91;74.78;103710.91;7397657;19;20015;-62
2023/12/16 02:28:13;;;;;;;9.10;2.80;;;;;;;8.92;75.17;103707.34;7397388;19;20019;-62
2023/12/16 02:30:41;;;;;;;10.40;3.17;;;;;;;8.97;75.04;103713.44;7394041;19;20015;-62
2023/12/16 02:33:09;;;;;;;14.23;2.92;;;;;;;8.92;74.77;103712.63;7397175;19;20022;-62
2023/12/16 02:35:37;;;;;;;12.60;2.33;;;;;;;8.91;74.61;103713.53;7398213;19;20026;-62
2023/12/16 02:38:04;;;;;;;9.98;2.50;;;;;;;8.91;74.50;103713.53;7397492;19;20349;-62
2023/12/16 02:40:38;;;;;;;13.18;2.92;;;;;;;8.90;74.14;103711.81;7395531;19;20341;-62
2023/12/16 02:43:06;;;;;;;9.18;2.55;;;;;;;8.94;74.26;103707.34;7398163;19;20022;-63
2023/12/16 02:45:34;;;;;;;10.95;2.55;;;;;;;8.93;74.52;103703.81;7397335;19;20018;-62
2023/12/16 02:48:02;;;;;;;8.70;2.58;;;;;;;8.95;73.96;103701.16;7398619;19;20018;-62
2023/12/16 02:50:30;;;;;;;13.45;2.67;;;;;;;8.93;74.10;103693.25;7396462;19;20018;-62
2023/12/16 02:52:59;;;;;;;9.27;2.45;;;;;;;8.99;73.78;103690.47;7398272;19;20402;-62
2023/12/16 02:55:28;;;;;;;11.70;2.53;;;;;;;8.95;73.90;103690.56;7400788;19;20035;-63
2023/12/16 02:57:56;;;;;;;9.68;2.50;;;;;;;8.92;73.97;103706.47;7399121;19;20023;-62
2023/12/16 03:00:23;;;;;;;8.70;2.47;;;;;;;8.90;73.57;103701.25;7396242;19;20022;-62
2023/12/16 03:02:51;;;;;;;11.10;3.35;;;;;;;8.93;73.80;103693.25;7399045;19;20014;-62
2023/12/16 03:05:19;;;;;;;8.88;2.05;;;;;;;8.96;73.30;103676.44;7401955;19;20036;-62
2023/12/16 03:07:47;;;;;;;11.77;2.50;;;;;;;8.91;73.49;103680.97;7402658;19;20063;-62
2023/12/16 03:10:15;;;;;;;13.55;2.63;;;;;;;8.91;73.20;103679.19;7397910;19;20051;-62
2023/12/16 03:12:44;;;;;;;9.52;2.60;;;;;;;8.89;73.14;103685.41;7396739;19;20645;-62
2023/12/16 03:15:12;;;;;;;9.13;2.30;;;;;;;8.89;73.23;103667.78;7395399;19;20026;-62
2023/12/16 03:17:40;;;;;;;10.48;3.10;;;;;;;8.92;72.78;103656.28;7396136;19;20039;-62
2023/12/16 03:20:09;;;;;;;10.45;2.25;;;;;;;8.97;72.83;103667.66;7393195;19;20036;-62
2023/12/16 03:22:40;;;;;;;13.38;2.78;;;;;;;8.91;72.96;103662.47;7395421;19;20019;-62
2023/12/16 03:25:08;;;;;;;11.15;2.33;;;;;;;8.89;72.49;103672.19;7395633;19;20022;-63
2023/12/16 03:27:36;;;;;;;8.80;2.60;;;;;;;8.89;72.38;103672.19;7395737;19;20026;-63
2023/12/16 03:30:05;;;;;;;11.95;2.53;;;;;;;8.84;72.57;103676.69;7394647;19;20026;-63
2023/12/16 03:32:32;;;;;;;12.40;2.30;;;;;;;8.91;72.26;103665.09;7391870;19;20024;-63
2023/12/16 03:35:01;;;;;;;9.85;2.67;;;;;;;8.83;72.60;103662.63;7395201;19;20014;-62
2023/12/16 03:37:29;;;;;;;12.05;2.55;;;;;;;8.66;72.79;103662.94;7395845;19;20029;-62
2023/12/16 03:39:57;;;;;;;12.60;2.80;;;;;;;8.64;73.15;103659.44;7394166;19;20019;-61
2023/12/16 03:42:25;;;;;;;12.75;2.72;;;;;;;8.67;72.77;103653.25;7393125;19;20018;-62
2023/12/16 03:44:53;;;;;;;10.82;2.72;;;;;;;8.71;72.33;103660.22;7394169;19;20036;-66
2023/12/16 03:47:21;;;;;;;10.25;2.47;;;;;;;8.69;72.14;103656.72;7394948;19;20018;-66
2023/12/16 03:49:49;;;;;;;10.23;2.40;;;;;;;8.58;71.99;103656.03;7393153;19;20034;-67
2023/12/16 03:52:17;;;;;;;10.68;2.20;;;;;;;8.56;72.07;103661.38;7391811;19;20018;-67
2023/12/16 03:54:45;;;;;;;9.75;2.22;;;;;;;8.62;72.11;103669.16;7394839;19;20507;-67
2023/12/16 03:57:13;;;;;;;11.30;2.05;;;;;;;8.63;72.20;103672.69;7394942;19;20082;-68
2023/12/16 03:59:41;;;;;;;10.40;2.30;;;;;;;8.65;71.58;103670.88;7394403;19;20026;-66
2023/12/16 04:02:09;;;;;;;11.40;2.38;;;;;;;8.59;71.72;103668.38;7394275;19;20019;-66
2023/12/16 04:04:37;;;;;;;10.52;2.28;;;;;;;8.56;71.46;103677.22;7394531;19;20017;-64
2023/12/16 04:07:04;;;;;;;7.88;2.38;;;;;;;8.59;71.61;103676.31;7393967;19;20014;-64
2023/12/16 04:09:33;;;;;;;9.93;2.50;;;;;;;8.59;71.39;103673.66;7394438;19;20039;-68
2023/12/16 04:12:02;;;;;;;10.70;2.20;;;;;;;8.45;71.59;103674.75;7392162;19;20496;-65
2023/12/16 04:14:30;;;;;;;8.52;2.03;;;;;;;8.49;71.31;103675.59;7393796;19;20043;-66
2023/12/16 04:16:58;;;;;;;13.20;3.40;;;;;;;8.50;71.21;103675.53;7393970;19;20042;-66
2023/12/16 04:19:25;;;;;;;10.30;2.38;;;;;;;8.59;71.22;103681.59;7394357;19;20495;-66
2023/12/16 04:21:53;;;;;;;10.43;2.60;;;;;;;8.56;70.91;103681.63;7391412;19;20018;-67
2023/12/16 04:24:21;;;;;;;10.23;2.35;;;;;;;8.50;71.04;103677.31;7394179;19;20011;-66
2023/12/16 04:26:49;;;;;;;9.43;2.28;;;;;;;8.43;71.03;103699.44;7393685;19;20014;-64
2023/12/16 04:29:17;;;;;;;10.30;2.40;;;;;;;8.54;71.13;103702.78;7394304;19;20010;-65
2023/12/16 04:31:45;;;;;;;8.15;1.95;;;;;;;8.47;71.11;103702.03;7391061;19;20022;-64
2023/12/16 04:34:13;;;;;;;10.48;2.30;;;;;;;8.45;71.26;103716.16;7393402;19;20035;-63
2023/12/16 04:36:41;;;;;;;12.45;2.63;;;;;;;8.43;70.97;103705.63;7393625;19;20385;-67
2023/12/16 04:39:09;;;;;;;10.15;2.50;;;;;;;8.43;70.92;103713.53;7393797;19;20019;-66
2023/12/16 04:41:37;;;;;;;11.30;2.35;;;;;;;8.38;71.07;103728.56;7391694;19;20023;-67
2023/12/16 04:44:05;;;;;;;11.82;2.70;;;;;;;8.39;71.08;103717.09;7393580;19;20037;-66
2023/12/16 04:46:33;;;;;;;12.02;2.47;;;;;;;8.36;71.31;103709.22;7393068;19;20026;-65
2023/12/16 04:49:01;;;;;;;11.07;2.35;;;;;;;8.38;71.02;103715.38;7392747;19;20026;-65
2023/12/16 04:51:29;;;;;;;10.35;2.50;;;;;;;8.38;71.10;103712.72;7389654;19;20023;-65
2023/12/16 04:53:58;;;;;;;11.23;2.95;;;;;;;8.40;70.93;103708.31;7393048;19;20014;-66
2023/12/16 04:56:25;;;;;;;9.80;2.50;;;;;;;8.42;70.97;103711.78;7391423;19;20026;-65
2023/12/16 04:58:53;;;;;;;8.98;2.88;;;;;;;8.45;70.65;103710.88;7392935;19;20022;-65
2023/12/16 05:01:21;;;;;;;13.60;2.65;;;;;;;8.37;70.99;103711.00;7390845;19;20022;-66
2023/12/16 05:03:49;;;;;;;12.65;2.53;;;;;;;8.30;71.21;103702.25;7392833;19;20038;-64
2023/12/16 05:06:17;;;;;;;12.68;2.95;;;;;;;8.30;71.21;103702.25;7393462;19;20031;-66
2023/12/16 05:08:45;;;;;;;11.45;2.75;;;;;;;8.35;71.34;103701.31;7393307;19;20360;-65
2023/12/16 05:11:13;;;;;;;9.32;2.63;;;;;;;8.35;71.18;103698.66;7390520;19;20479;-64
2023/12/16 05:13:42;;;;;;;10.55;2.50;;;;;;;8.34;71.10;103703.09;7392594;19;20082;-64
2023/12/16 05:16:10;;;;;;;12.95;2.70;;;;;;;8.36;71.28;103711.88;7392444;19;20040;-65
2023/12/16 05:18:38;;;;;;;12.80;2.65;;;;;;;8.34;70.90;103716.28;7392449;19;20093;-64
2023/12/16 05:21:06;;;;;;;13.88;2.50;;;;;;;8.33;70.90;103722.47;7390612;19;20018;-66
2023/12/16 05:23:34;;;;;;;12.60;2.80;;;;;;;8.30;71.18;103728.66;7391978;19;20021;-65
2023/12/16 05:26:02;;;;;;;13.13;2.60;;;;;;;8.32;71.21;103726.03;7390784;19;20425;-66
2023/12/16 05:28:32;;;;;;;15.40;2.80;;;;;;;8.27;71.48;103727.84;7392042;19;20011;-65
2023/12/16 05:31:00;;;;;;;10.57;2.35;;;;;;;8.16;71.60;103721.84;7390282;19;20039;-64
2023/12/16 05:33:28;;;;;;;12.02;2.40;;;;;;;8.19;71.75;103727.09;7392254;19;20033;-61
2023/12/16 05:35:56;;;;;;;12.10;2.63;;;;;;;8.15;71.67;103725.41;7392100;19;20015;-62
2023/12/16 05:38:24;;;;;;;10.90;2.85;;;;;;;8.20;71.53;103716.50;7390388;19;20014;-62
2023/12/16 05:40:52;;;;;;;10.48;2.65;;;;;;;8.20;71.80;103728.84;7390225;19;20019;-62
2023/12/16 05:43:20;;;;;;;11.35;2.53;;;;;;;8.17;71.40;103713.94;7391431;19;20070;-62
2023/12/16 05:45:48;;;;;;;15.30;3.03;;;;;;;8.14;71.77;103731.59;7392515;19;20046;-61
2023/12/16 05:48:16;;;;;;;13.27;3.08;;;;;;;8.31;71.38;103729.53;7391674;19;20082;-63
2023/12/16 05:50:44;;;;;;;11.15;2.50;;;;;;;8.30;71.34;103723.38;7389910;19;20014;-63
2023/12/16 05:53:12;;;;;;;10.77;2.47;;;;;;;8.40;71.17;103734.72;7389441;19;20086;-60
2023/12/16 05:55:40;;;;;;;9.32;2.60;;;;;;;8.34;71.23;103734.78;7391549;19;20019;-61
2023/12/16 05:58:08;;;;;;;12.02;2.90;;;;;;;8.36;71.23;103735.63;7390970;19;20039;-62
2023/12/16 06:00:36;;;;;;;10.57;3.00;;;;;;;8.39;71.16;103732.94;7389453;19;20381;-62
2023/12/16 06:03:04;;;;;;;14.00;3.20;;;;;;;8.47;71.04;103733.72;7391448;19;20022;-62
2023/12/16 06:05:32;;;;;;;13.57;3.25;;;;;;;8.39;71.44;103727.66;7391065;19;20011;-62
2023/12/16 06:08:00;;;;;;;14.40;2.80;;;;;;;8.45;71.06;103729.34;7391018;19;20043;-61
2023/12/16 06:10:28;;;;;;;12.68;3.22;;;;;;;8.47;71.08;103727.53;7389953;19;20026;-61
2023/12/16 06:12:56;;;;;;;11.52;3.05;;;;;;;8.40;71.30;103733.84;7389150;19;20078;-62
2023/12/16 06:15:25;;;;;;;12.60;2.70;;;;;;;8.32;71.47;103726.03;7389509;19;20582;-62
2023/12/16 06:17:53;;;;;;;11.05;2.55;;;;;;;8.24;72.00;103727.88;7390766;19;20019;-62
2023/12/16 06:20:21;;;;;;;11.13;2.80;;;;;;;8.28;72.04;103734.88;7389584;19;20023;-62
2023/12/16 06:22:49;;;;;;;11.65;2.90;;;;;;;8.36;71.30;103733.00;7390446;19;20030;-62
2023/12/16 06:25:16;;;;;;;13.30;2.63;;;;;;;8.42;71.09;103732.91;7390302;19;20373;-62
2023/12/16 06:27:44;;;;;;;9.20;2.63;;;;;;;8.45;71.50;103730.22;7390708;19;20022;-62
2023/12/16 06:30:12;;;;;;;14.15;3.03;;;;;;;8.46;71.39;103729.31;7387483;19;20022;-62
2023/12/16 06:32:40;;;;;;;12.70;2.53;;;;;;;8.49;71.15;103733.69;7388800;19;20027;-62
2023/12/16 06:35:08;;;;;;;13.07;2.78;;;;;;;8.46;71.10;103721.38;7390333;19;20099;-63
2023/12/16 06:37:37;;;;;;;12.75;2.60;;;;;;;8.40;71.40;103718.00;7393212;19;20010;-62
2023/12/16 06:40:06;;;;;;;14.40;3.28;;;;;;;8.44;71.73;103711.78;7395731;19;20082;-62
2023/12/16 06:42:34;;;;;;;10.40;2.60;;;;;;;8.46;71.50;103713.47;7397129;19;20025;-62
2023/12/16 06:45:02;;;;;;;13.18;2.90;;;;;;;8.51;71.63;103710.78;7397110;19;20018;-61
2023/12/16 06:47:30;;;;;;;12.35;2.80;;;;;;;8.49;71.65;103707.28;7395333;19;20031;-62
2023/12/16 06:49:58;;;;;;;12.07;2.78;;;;;;;8.39;71.72;103693.34;7396352;19;20019;-63
2023/12/16 06:52:26;;;;;;;15.45;3.60;;;;;;;8.40;71.68;103702.16;7395687;19;20014;-63
2023/12/16 06:54:54;;;;;;;14.43;3.10;;;;;;;8.45;71.91;103703.81;7396957;19;20359;-63
2023/12/16 06:57:21;;;;;;;16.20;3.47;;;;;;;8.47;71.83;103711.69;7394826;19;20035;-63
2023/12/16 06:59:49;;;;;;;14.65;3.10;;;;;;;8.54;71.54;103714.19;7396364;19;20030;-63
2023/12/16 07:02:17;;;;;;;17.05;3.53;;;;;;;8.52;71.75;103712.50;7396259;19;20114;-63
2023/12/16 07:04:45;;;;;;;12.80;3.55;;;;;;;8.50;71.92;103711.66;7396650;19;20035;-62
2023/12/16 07:07:13;;;;;;;13.07;3.42;;;;;;;8.50;71.92;103706.38;7398230;19;20021;-64
2023/12/16 07:09:41;;;;;;;11.98;2.75;;;;;;;8.61;71.87;103714.97;7396766;19;20479;-64
2023/12/16 07:12:09;;;;;;;14.23;4.53;;;;;;;8.67;71.82;103716.66;7396067;19;20098;-63
2023/12/16 07:14:38;;;;;;;12.93;3.70;;;;;;;8.66;71.37;103713.16;7397863;19;20018;-62
2023/12/16 07:17:05;;;;;;;17.67;3.47;;;;;;;8.63;72.14;103715.84;7399796;19;20032;-64
2023/12/16 07:19:34;;;;;;;20.33;3.88;;;;;;;8.64;71.99;103716.69;7400577;19;20017;-64
2023/12/16 07:22:03;;;;;;;15.23;3.75;;;;;;;8.68;72.19;103718.38;7396196;19;20021;-64
2023/12/16 07:24:31;;;;;;;12.43;3.00;;;;;;;8.68;71.88;103718.38;7395983;19;20018;-65
2023/12/16 07:26:58;;;;;;;14.13;3.55;;;;;;;8.64;72.03;103714.06;7395810;19;20018;-62
2023/12/16 07:29:27;;;;;;;16.88;3.83;;;;;;;8.65;72.11;103718.44;7395995;19;20030;-62
2023/12/16 07:31:54;;;;;;;16.98;3.65;;;;;;;8.59;72.66;103722.06;7394701;19;20023;-62
2023/12/16 07:34:22;;;;;;;18.13;4.00;;;;;;;8.54;73.13;103716.84;7394771;19;20285;-62
2023/12/16 07:36:51;;;;;;;14.80;3.50;;;;;;;8.62;72.69;103727.28;7395916;19;20022;-62
2023/12/16 07:39:18;;;;;;;22.05;4.40;;;;;;;8.60;72.82;103720.28;7395884;19;20026;-62
2023/12/16 07:41:46;;;;;;;20.17;3.55;;;;;;;8.67;72.47;103720.16;7392561;19;20515;-62
2023/12/16 07:44:14;;;;;;;18.15;3.45;;;;;;;8.63;73.01;103715.84;7394113;19;20100;-62
2023/12/16 07:46:42;;;;;;;11.18;3.28;;;;;;;8.70;72.69;103713.94;7396174;19;20010;-61
2023/12/16 07:49:10;;;;;;;19.67;3.92;;;;;;;8.69;72.98;103717.47;7394662;19;20018;-62
2023/12/16 07:51:38;;;;;;;14.50;3.25;;;;;;;8.65;72.92;103719.31;7393146;19;20399;-61
2023/12/16 07:54:06;;;;;;;18.42;3.85;;;;;;;8.63;73.35;103718.47;7391304;19;20085;-61
2023/12/16 07:56:33;;;;;;;14.75;3.60;;;;;;;8.59;73.53;103726.50;7394671;19;20026;-61
2023/12/16 07:59:01;;;;;;;13.82;3.40;;;;;;;8.73;73.21;103727.09;7392857;19;20512;-61
2023/12/16 08:01:29;;;;;;;12.35;3.40;;;;;;;8.71;73.09;103729.78;7392081;19;20022;-61
2023/12/16 08:03:57;;;;;;;17.20;3.35;;;;;;;8.71;73.35;103726.25;7394470;19;20014;-60
2023/12/16 08:06:25;;;;;;;15.38;3.58;;;;;;;8.72;73.22;103717.44;7394384;19;20014;-61
2023/12/16 08:08:53;;;;;;;15.32;3.75;;;;;;;8.68;73.78;103713.09;7393992;19;20012;-61
2023/12/16 08:11:21;;;;;;;12.07;3.00;;;;;;;8.82;73.48;103715.50;7392612;19;20039;-61
2023/12/16 08:13:49;;;;;;;20.40;4.18;;;;;;;8.79;73.10;103719.94;7392569;19;20014;-61
2023/12/16 08:16:17;;;;;;;14.30;3.67;;;;;;;8.65;73.82;103713.16;7394053;19;20352;-61
2023/12/16 08:18:45;;;;;;;15.40;3.60;;;;;;;8.73;73.76;103709.47;7394206;19;20508;-61
2023/12/16 08:21:17;;;;;;;13.82;3.45;;;;;;;8.84;73.41;103706.63;7391693;19;20037;-61
2023/12/16 08:23:45;;;;;;;16.80;4.05;;;;;;;8.81;73.32;103726.94;7393997;19;20404;-61
2023/12/16 08:26:13;;;;;;;14.52;3.85;;;;;;;8.86;73.11;103730.41;7393705;19;20074;-62
2023/12/16 08:28:41;;;;;;;15.80;3.78;;;;;;;8.75;73.49;103723.53;7394159;19;20046;-61
2023/12/16 08:31:09;;;;;;;16.33;3.72;;;;;;;8.92;73.32;103724.97;7391926;19;20010;-61
2023/12/16 08:33:37;;;;;;;16.10;4.28;;;;;;;8.96;72.87;103724.88;7392212;19;20035;-64
2023/12/16 08:36:06;;;;;;;16.83;3.55;;;;;;;8.99;72.98;103735.41;7393824;19;20031;-64
2023/12/16 08:38:38;;;;;;;15.43;3.95;;;;;;;8.98;73.11;103731.03;7391989;19;20341;-63
2023/12/16 08:41:10;;;;;;;13.77;3.47;;;;;;;9.05;72.97;103729.16;7389780;19;20022;-63
2023/12/16 08:43:38;;;;;;;15.63;3.80;;;;;;;9.01;72.90;103728.34;7393359;19;20105;-63
2023/12/16 08:46:06;;;;;;;16.48;3.90;;;;;;;9.08;73.13;103734.38;7391817;19;20039;-63
2023/12/16 08:48:35;;;;;;;18.17;4.03;;;;;;;9.03;73.28;103742.38;7393646;19;20022;-63
2023/12/16 08:51:03;;;;;;;16.00;4.57;;;;;;;9.01;73.43;103738.03;7391709;19;20806;-63
2023/12/16 08:53:31;;;;;;;15.02;4.07;;;;;;;8.98;73.98;103744.25;7392056;19;20022;-63
2023/12/16 08:55:59;;;;;;;16.55;3.90;;;;;;;9.01;73.97;103746.84;7393166;19;20043;-62
2023/12/16 08:58:28;;;;;;;17.25;3.97;;;;;;;8.94;74.34;103746.97;7392514;19;20021;-62
2023/12/16 09:00:56;;;;;;;14.93;4.88;;;;;;;8.99;74.57;103751.28;7389309;19;20021;-62
2023/12/16 09:03:24;;;;;;;18.20;4.38;;;;;;;9.00;74.58;103745.09;7393045;19;20014;-62
2023/12/16 09:05:52;;;;;;;18.90;4.65;;;;;;;8.96;74.76;103731.94;7392453;19;20022;-62
2023/12/16 09:08:19;;;;;;;19.73;4.65;;;;;;;8.96;75.29;103738.09;7392623;19;20022;-60
2023/12/16 09:10:47;;;;;;;20.05;4.75;;;;;;;9.03;75.11;103754.72;7390823;19;20039;-60
2023/12/16 09:13:15;;;;;;;20.45;5.40;;;;;;;9.01;75.51;103753.91;7391633;19;20018;-61
2023/12/16 09:15:43;;;;;;;17.20;5.05;;;;;;;9.00;75.98;103752.13;7392635;19;20015;-61
2023/12/16 09:18:11;;;;;;;16.65;4.72;;;;;;;8.97;76.31;103752.22;7392516;19;20542;-63
2023/12/16 09:20:42;;;;;;;15.35;5.03;;;;;;;8.95;76.63;103749.59;7390094;19;20366;-63
2023/12/16 09:23:09;;;;;;;17.88;5.40;;;;;;;8.92;77.13;103754.06;7392372;19;20014;-62
2023/12/16 09:25:37;;;;;;;21.38;5.70;;;;;;;8.95;77.15;103759.28;7392359;19;20025;-63
2023/12/16 09:28:05;;;;;;;21.35;5.55;;;;;;;9.02;77.24;103766.22;7392250;19;20018;-61
2023/12/16 09:30:33;;;;;;;20.80;5.60;;;;;;;8.98;77.34;103769.81;7390896;19;20026;-60
2023/12/16 09:33:01;;;;;;;21.23;6.95;;;;;;;9.02;77.39;103760.91;7390102;19;20386;-62
2023/12/16 09:35:29;;;;;;;18.80;5.53;;;;;;;8.99;77.50;103761.84;7391872;19;20014;-62
2023/12/16 09:37:57;;;;;;;21.83;5.90;;;;;;;9.01;77.46;103764.47;7391665;19;20018;-63
2023/12/16 09:40:26;;;;;;;20.45;5.53;;;;;;;9.07;77.23;103763.47;7389906;19;20381;-62
2023/12/16 09:43:04;;;;;;;18.48;5.65;;;;;;;9.14;77.16;103776.53;7391797;19;20026;-63
2023/12/16 09:45:32;;;;;;;20.15;5.80;;;;;;;9.17;77.23;103763.28;7391616;19;20011;-62
2023/12/16 09:48:00;;;;;;;23.65;6.03;;;;;;;9.14;77.46;103760.69;7391410;19;20014;-62
2023/12/16 09:50:31;;;;;;;20.35;5.32;;;;;;;9.21;77.04;103751.75;7387894;19;20014;-62
2023/12/16 09:52:59;;;;;;;22.65;5.95;;;;;;;9.13;77.43;103751.03;7390513;19;20014;-63
2023/12/16 09:55:27;;;;;;;19.70;5.68;;;;;;;9.05;77.57;103736.22;7391321;19;20018;-63
2023/12/16 09:57:58;;;;;;;24.77;5.95;;;;;;;9.11;77.66;103729.00;7391324;19;20030;-62
2023/12/16 10:00:30;;;;;;;23.27;5.68;;;;;;;9.16;77.15;103726.31;7390331;19;20381;-62
2023/12/16 10:02:59;;;;;;;20.25;5.78;;;;;;;9.10;77.63;103742.28;7391408;19;20027;-63
2023/12/16 10:05:28;;;;;;;21.63;6.28;;;;;;;9.10;77.97;103723.78;7390702;19;20015;-63
2023/12/16 10:07:57;;;;;;;22.33;6.57;;;;;;;9.13;77.94;103729.88;7391235;19;20051;-63
2023/12/16 10:10:25;;;;;;;21.92;6.60;;;;;;;8.97;78.29;103724.00;7389478;19;20043;-63
2023/12/16 10:12:53;;;;;;;21.20;6.50;;;;;;;9.00;78.19;103709.84;7396905;19;20018;-63
2023/12/16 10:15:30;;;;;;;24.63;6.75;;;;;;;9.08;78.31;103722.91;7398733;19;20033;-63
2023/12/16 10:18:02;;;;;;;20.42;5.88;;;;;;;9.07;78.24;103718.53;7398285;19;20017;-63
2023/12/16 10:20:31;;;;;;;21.13;6.57;;;;;;;8.96;78.91;103716.09;7394748;19;20379;-63
2023/12/16 10:23:02;;;;;;;20.63;6.05;;;;;;;9.08;78.71;103712.34;7398101;19;20033;-63
2023/12/16 10:25:32;;;;;;;23.92;6.38;;;;;;;9.07;78.63;103705.31;7398441;19;20399;-63
2023/12/16 10:28:00;;;;;;;23.20;6.57;;;;;;;8.98;78.95;103712.53;7398222;19;20007;-63
2023/12/16 10:30:30;;;;;;;18.52;6.13;;;;;;;9.02;79.21;103698.34;7395895;19;20551;-63
2023/12/16 10:33:03;;;;;;;17.73;7.00;;;;;;;8.95;79.53;103690.56;7397324;19;20043;-63
2023/12/16 10:35:31;;;;;;;21.23;6.68;;;;;;;8.99;79.60;103689.59;7396105;19;20498;-62
2023/12/16 10:37:59;;;;;;;22.50;6.65;;;;;;;9.12;79.00;103679.66;7397289;19;20026;-62
2023/12/16 10:40:27;;;;;;;18.80;7.40;;;;;;;9.12;79.33;103682.28;7395915;19;20047;-62
2023/12/16 10:42:55;;;;;;;16.98;6.15;;;;;;;9.04;80.00;103682.44;7397045;19;20018;-62
2023/12/16 10:45:25;;;;;;;20.63;7.07;;;;;;;9.05;80.00;103670.13;7395743;19;20498;-62
2023/12/16 10:47:54;;;;;;;21.63;7.28;;;;;;;9.09;80.01;103677.09;7397638;19;20336;-62
2023/12/16 10:50:25;;;;;;;20.92;7.47;;;;;;;8.97;80.93;103673.78;7395184;19;20018;-62
2023/12/16 10:52:56;;;;;;;22.63;7.68;;;;;;;8.87;81.33;103660.78;7396660;19;20007;-63
2023/12/16 10:55:39;;;;;;;24.20;7.22;;;;;;;8.96;81.13;103665.88;7397276;19;20014;-63
2023/12/16 10:58:21;;;;;;;22.98;7.70;;;;;;;8.96;81.32;103650.88;7397149;19;20055;-63
2023/12/16 11:00:54;;;;;;;25.58;7.68;;;;;;;8.98;81.11;103643.81;7394989;19;20095;-63
2023/12/16 11:03:33;;;;;;;26.20;8.20;;;;;;;9.07;80.82;103641.88;7396381;19;20018;-63
2023/12/16 11:06:12;;;;;;;22.40;7.45;;;;;;;9.09;80.60;103622.44;7396516;19;20494;-63
2023/12/16 11:08:41;;;;;;;24.10;6.93;;;;;;;9.05;80.66;103627.84;7396938;19;20022;-62
2023/12/16 11:11:09;;;;;;;23.38;7.03;;;;;;;8.93;80.94;103621.00;7393622;19;20502;-60
2023/12/16 11:13:38;;;;;;;22.85;7.72;;;;;;;8.96;80.93;103605.94;7395482;19;20489;-66
2023/12/16 11:16:15;;;;;;;16.90;6.68;;;;;;;9.03;80.59;103606.69;7395965;19;20007;-67
2023/12/16 11:18:54;;;;;;;19.38;7.28;;;;;;;9.00;80.67;103604.13;7396223;19;20014;-70
2023/12/16 11:21:22;;;;;;;22.08;7.38;;;;;;;9.00;80.53;103607.66;7393895;19;20078;-70
2023/12/16 11:23:50;;;;;;;22.33;7.18;;;;;;;9.07;80.55;103613.66;7393213;19;20023;-68
2023/12/16 11:26:19;;;;;;;24.08;8.57;;;;;;;9.02;80.69;103608.47;7394592;19;20794;-68
2023/12/16 11:28:54;;;;;;;22.98;6.93;;;;;;;9.05;80.42;103610.19;7395506;19;20015;-70
2023/12/16 11:31:22;;;;;;;18.58;7.22;;;;;;;8.99;80.80;103594.47;7393343;19;20380;-71
2023/12/16 11:33:50;;;;;;;20.77;7.40;;;;;;;9.01;80.99;103595.31;7394567;19;20409;-70